sensor_id;sensor_type;location;lat;lon;timestamp;pressure;altitude;pressure_sealevel;temperature;humidity
83843;BME280;73869;52.336;21.182;2024-01-30T00:01:06;102421.94;;;0.86;87.97
83843;BME280;73869;52.336;21.182;2024-01-30T00:03:32;102413.59;;;0.78;87.78
83843;BME280;73869;52.336;21.182;2024-01-30T00:05:59;102408.13;;;0.80;87.61
83843;BME280;73869;52.336;21.182;2024-01-30T00:08:26;102399.91;;;0.70;87.75
83843;BME280;73869;52.336;21.182;2024-01-30T00:10:52;102413.34;;;0.69;88.05
83843;BME280;73869;52.336;21.182;2024-01-30T00:13:20;102421.19;;;0.72;87.54
83843;BME280;73869;52.336;21.182;2024-01-30T00:15:48;102429.31;;;0.83;87.42
83843;BME280;73869;52.336;21.182;2024-01-30T00:18:14;102422.44;;;0.79;87.57
83843;BME280;73869;52.336;21.182;2024-01-30T00:20:41;102423.97;;;0.83;87.86
83843;BME280;73869;52.336;21.182;2024-01-30T00:23:08;102403.97;;;0.63;88.08
83843;BME280;73869;52.336;21.182;2024-01-30T00:25:35;102419.25;;;0.61;88.11
83843;BME280;73869;52.336;21.182;2024-01-30T00:28:01;102372.63;;;0.40;88.24
83843;BME280;73869;52.336;21.182;2024-01-30T00:30:29;102412.84;;;0.64;88.53
83843;BME280;73869;52.336;21.182;2024-01-30T00:32:56;102382.44;;;0.40;88.69
83843;BME280;73869;52.336;21.182;2024-01-30T00:35:22;102370.91;;;0.39;88.73
83843;BME280;73869;52.336;21.182;2024-01-30T00:37:49;102400.09;;;0.55;88.86
83843;BME280;73869;52.336;21.182;2024-01-30T00:40:15;102393.69;;;0.57;88.09
83843;BME280;73869;52.336;21.182;2024-01-30T00:42:43;102356.47;;;0.42;88.28
83843;BME280;73869;52.336;21.182;2024-01-30T00:45:12;102388.84;;;0.62;88.11
83843;BME280;73869;52.336;21.182;2024-01-30T00:47:40;102389.94;;;0.60;88.28
83843;BME280;73869;52.336;21.182;2024-01-30T00:50:07;102390.50;;;0.52;88.57
83843;BME280;73869;52.336;21.182;2024-01-30T00:52:34;102387.16;;;0.49;88.61
83843;BME280;73869;52.336;21.182;2024-01-30T00:55:00;102383.09;;;0.43;88.38
83843;BME280;73869;52.336;21.182;2024-01-30T00:57:28;102407.78;;;0.47;88.31
83843;BME280;73869;52.336;21.182;2024-01-30T00:59:54;102408.44;;;0.50;88.50
83843;BME280;73869;52.336;21.182;2024-01-30T01:02:21;102403.63;;;0.55;88.35
83843;BME280;73869;52.336;21.182;2024-01-30T01:04:49;102313.59;;;0.06;88.15
83843;BME280;73869;52.336;21.182;2024-01-30T01:07:15;102400.00;;;0.56;87.87
83843;BME280;73869;52.336;21.182;2024-01-30T01:09:42;102393.78;;;0.43;87.82
83843;BME280;73869;52.336;21.182;2024-01-30T01:12:08;102410.47;;;0.47;88.26
83843;BME280;73869;52.336;21.182;2024-01-30T01:14:35;102403.81;;;0.27;88.61
83843;BME280;73869;52.336;21.182;2024-01-30T01:17:02;102395.25;;;0.22;88.45
83843;BME280;73869;52.336;21.182;2024-01-30T01:19:28;102420.19;;;0.35;88.88
83843;BME280;73869;52.336;21.182;2024-01-30T01:21:56;102414.59;;;0.26;88.68
83843;BME280;73869;52.336;21.182;2024-01-30T01:24:23;102425.16;;;0.15;88.78
83843;BME280;73869;52.336;21.182;2024-01-30T01:26:49;102416.50;;;0.11;88.72
83843;BME280;73869;52.336;21.182;2024-01-30T01:29:16;102417.25;;;0.13;89.35
83843;BME280;73869;52.336;21.182;2024-01-30T01:31:43;102403.53;;;0.05;89.61
83843;BME280;73869;52.336;21.182;2024-01-30T01:34:09;102406.06;;;-0.06;89.85
83843;BME280;73869;52.336;21.182;2024-01-30T01:36:36;102384.25;;;-0.25;89.40
83843;BME280;73869;52.336;21.182;2024-01-30T01:39:04;102401.66;;;-0.20;89.96
83843;BME280;73869;52.336;21.182;2024-01-30T01:41:31;102367.69;;;-0.44;90.44
83843;BME280;73869;52.336;21.182;2024-01-30T01:43:58;102389.44;;;-0.36;90.68
83843;BME280;73869;52.336;21.182;2024-01-30T01:46:26;102398.44;;;-0.51;91.70
83843;BME280;73869;52.336;21.182;2024-01-30T01:48:54;102387.47;;;-0.47;91.93
83843;BME280;73869;52.336;21.182;2024-01-30T01:51:21;102386.59;;;-0.47;92.09
83843;BME280;73869;52.336;21.182;2024-01-30T01:53:49;102328.19;;;-0.78;91.60
83843;BME280;73869;52.336;21.182;2024-01-30T01:56:17;102377.41;;;-0.56;91.97
83843;BME280;73869;52.336;21.182;2024-01-30T01:58:45;102389.56;;;-0.52;92.04
83843;BME280;73869;52.336;21.182;2024-01-30T02:01:13;102374.22;;;-0.48;91.51
83843;BME280;73869;52.336;21.182;2024-01-30T02:03:41;102402.81;;;-0.50;91.79
83843;BME280;73869;52.336;21.182;2024-01-30T02:06:07;102334.78;;;-0.84;92.30
83843;BME280;73869;52.336;21.182;2024-01-30T02:08:37;102380.66;;;-0.65;91.97
83843;BME280;73869;52.336;21.182;2024-01-30T02:11:04;102389.88;;;-0.56;92.71
83843;BME280;73869;52.336;21.182;2024-01-30T02:13:32;102355.03;;;-0.67;92.53
83843;BME280;73869;52.336;21.182;2024-01-30T02:15:59;102359.31;;;-0.65;92.00
83843;BME280;73869;52.336;21.182;2024-01-30T02:18:26;102322.44;;;-0.99;92.02
83843;BME280;73869;52.336;21.182;2024-01-30T02:21:14;102317.03;;;-1.11;92.27
83843;BME280;73869;52.336;21.182;2024-01-30T02:23:42;102320.75;;;-1.14;92.92
83843;BME280;73869;52.336;21.182;2024-01-30T02:26:09;102301.16;;;-1.27;93.18
83843;BME280;73869;52.336;21.182;2024-01-30T02:28:36;102338.13;;;-0.94;92.94
83843;BME280;73869;52.336;21.182;2024-01-30T02:31:03;102362.13;;;-0.80;93.46
83843;BME280;73869;52.336;21.182;2024-01-30T02:33:30;102377.97;;;-0.65;93.08
83843;BME280;73869;52.336;21.182;2024-01-30T02:35:57;102377.47;;;-0.57;93.03
83843;BME280;73869;52.336;21.182;2024-01-30T02:38:26;102381.16;;;-0.46;92.27
83843;BME280;73869;52.336;21.182;2024-01-30T02:40:54;102371.97;;;-0.54;92.70
83843;BME280;73869;52.336;21.182;2024-01-30T02:43:20;102351.84;;;-0.60;92.82
83843;BME280;73869;52.336;21.182;2024-01-30T02:45:47;102368.88;;;-0.48;92.00
83843;BME280;73869;52.336;21.182;2024-01-30T02:48:14;102319.44;;;-0.80;92.81
83843;BME280;73869;52.336;21.182;2024-01-30T02:50:40;102370.84;;;-0.64;92.31
83843;BME280;73869;52.336;21.182;2024-01-30T02:53:07;102356.69;;;-0.79;92.79
83843;BME280;73869;52.336;21.182;2024-01-30T02:55:36;102371.41;;;-0.73;93.12
83843;BME280;73869;52.336;21.182;2024-01-30T02:58:02;102370.03;;;-0.79;92.73
83843;BME280;73869;52.336;21.182;2024-01-30T03:00:29;102370.59;;;-0.74;92.45
83843;BME280;73869;52.336;21.182;2024-01-30T03:02:56;102375.34;;;-0.52;92.61
83843;BME280;73869;52.336;21.182;2024-01-30T03:05:22;102371.97;;;-0.54;92.40
83843;BME280;73869;52.336;21.182;2024-01-30T03:07:49;102346.03;;;-0.79;92.44
83843;BME280;73869;52.336;21.182;2024-01-30T03:10:16;102363.78;;;-0.65;92.19
83843;BME280;73869;52.336;21.182;2024-01-30T03:12:44;102342.84;;;-0.71;92.29
83843;BME280;73869;52.336;21.182;2024-01-30T03:15:10;102361.09;;;-0.65;92.22
83843;BME280;73869;52.336;21.182;2024-01-30T03:17:37;102375.75;;;-0.58;92.90
83843;BME280;73869;52.336;21.182;2024-01-30T03:20:04;102361.50;;;-0.71;92.41
83843;BME280;73869;52.336;21.182;2024-01-30T03:22:31;102319.09;;;-1.02;92.38
83843;BME280;73869;52.336;21.182;2024-01-30T03:24:58;102348.31;;;-0.87;92.26
83843;BME280;73869;52.336;21.182;2024-01-30T03:27:25;102329.78;;;-1.02;92.43
83843;BME280;73869;52.336;21.182;2024-01-30T03:29:53;102337.38;;;-0.96;92.65
83843;BME280;73869;52.336;21.182;2024-01-30T03:32:19;102361.66;;;-0.87;92.69
83843;BME280;73869;52.336;21.182;2024-01-30T03:34:46;102374.78;;;-0.84;92.48
83843;BME280;73869;52.336;21.182;2024-01-30T03:37:12;102339.66;;;-1.04;92.29
83843;BME280;73869;52.336;21.182;2024-01-30T03:39:39;102318.69;;;-1.23;92.51
83843;BME280;73869;52.336;21.182;2024-01-30T03:42:05;102317.97;;;-1.12;92.42
83843;BME280;73869;52.336;21.182;2024-01-30T03:44:32;102316.84;;;-1.22;93.16
83843;BME280;73869;52.336;21.182;2024-01-30T03:47:00;102325.91;;;-1.25;92.88
83843;BME280;73869;52.336;21.182;2024-01-30T03:49:26;102349.03;;;-1.11;92.88
83843;BME280;73869;52.336;21.182;2024-01-30T03:51:53;102315.06;;;-1.22;93.83
83843;BME280;73869;52.336;21.182;2024-01-30T03:54:19;102356.91;;;-0.96;93.02
83843;BME280;73869;52.336;21.182;2024-01-30T03:56:46;102348.31;;;-0.87;93.43
83843;BME280;73869;52.336;21.182;2024-01-30T03:59:13;102340.03;;;-0.96;92.68
83843;BME280;73869;52.336;21.182;2024-01-30T04:01:39;102340.78;;;-0.80;93.29
83843;BME280;73869;52.336;21.182;2024-01-30T04:04:07;102303.06;;;-1.15;92.72
83843;BME280;73869;52.336;21.182;2024-01-30T04:06:34;102341.47;;;-0.91;92.33
83843;BME280;73869;52.336;21.182;2024-01-30T04:09:01;102341.25;;;-0.88;92.62
83843;BME280;73869;52.336;21.182;2024-01-30T04:11:29;102359.25;;;-0.77;92.85
83843;BME280;73869;52.336;21.182;2024-01-30T04:13:55;102357.31;;;-0.75;92.33
83843;BME280;73869;52.336;21.182;2024-01-30T04:16:22;102338.91;;;-0.92;92.49
83843;BME280;73869;52.336;21.182;2024-01-30T04:18:52;102358.38;;;-0.78;92.11
83843;BME280;73869;52.336;21.182;2024-01-30T04:21:21;102351.03;;;-0.74;91.99
83843;BME280;73869;52.336;21.182;2024-01-30T04:23:48;102341.47;;;-0.91;91.72
83843;BME280;73869;52.336;21.182;2024-01-30T04:26:15;102303.31;;;-1.05;92.60
83843;BME280;73869;52.336;21.182;2024-01-30T04:28:41;102315.66;;;-0.90;91.60
83843;BME280;73869;52.336;21.182;2024-01-30T04:31:08;102351.91;;;-0.74;92.02
83843;BME280;73869;52.336;21.182;2024-01-30T04:33:35;102300.59;;;-0.91;91.52
83843;BME280;73869;52.336;21.182;2024-01-30T04:36:02;102310.78;;;-0.84;91.56
83843;BME280;73869;52.336;21.182;2024-01-30T04:38:31;102344.53;;;-0.70;91.46
83843;BME280;73869;52.336;21.182;2024-01-30T04:40:58;102330.81;;;-0.64;91.48
83843;BME280;73869;52.336;21.182;2024-01-30T04:43:24;102342.06;;;-0.59;91.11
83843;BME280;73869;52.336;21.182;2024-01-30T04:45:51;102347.19;;;-0.56;91.44
83843;BME280;73869;52.336;21.182;2024-01-30T04:48:18;102329.19;;;-0.67;91.50
83843;BME280;73869;52.336;21.182;2024-01-30T04:50:44;102343.34;;;-0.52;91.65
83843;BME280;73869;52.336;21.182;2024-01-30T04:53:11;102327.81;;;-0.86;91.01
83843;BME280;73869;52.336;21.182;2024-01-30T04:55:39;102303.34;;;-0.79;91.53
83843;BME280;73869;52.336;21.182;2024-01-30T04:58:06;102295.94;;;-0.88;90.52
83843;BME280;73869;52.336;21.182;2024-01-30T05:00:33;102347.75;;;-0.51;90.96
83843;BME280;73869;52.336;21.182;2024-01-30T05:02:59;102343.06;;;-0.48;90.60
83843;BME280;73869;52.336;21.182;2024-01-30T05:05:26;102341.22;;;-0.47;90.79
83843;BME280;73869;52.336;21.182;2024-01-30T05:07:52;102330.19;;;-0.55;90.20
83843;BME280;73869;52.336;21.182;2024-01-30T05:10:19;102346.91;;;-0.39;90.55
83843;BME280;73869;52.336;21.182;2024-01-30T05:12:47;102284.78;;;-0.80;89.74
83843;BME280;73869;52.336;21.182;2024-01-30T05:15:14;102327.94;;;-0.61;90.29
83843;BME280;73869;52.336;21.182;2024-01-30T05:17:40;102348.19;;;-0.45;90.58
83843;BME280;73869;52.336;21.182;2024-01-30T05:20:08;102353.63;;;-0.46;90.51
83843;BME280;73869;52.336;21.182;2024-01-30T05:22:36;102314.81;;;-0.64;90.02
83843;BME280;73869;52.336;21.182;2024-01-30T05:25:03;102256.53;;;-0.97;90.69
83843;BME280;73869;52.336;21.182;2024-01-30T05:27:30;102335.09;;;-0.62;90.85
83843;BME280;73869;52.336;21.182;2024-01-30T05:29:58;102316.06;;;-0.70;90.74
83843;BME280;73869;52.336;21.182;2024-01-30T05:32:24;102334.78;;;-0.57;90.69
83843;BME280;73869;52.336;21.182;2024-01-30T05:34:51;102304.53;;;-0.70;89.87
83843;BME280;73869;52.336;21.182;2024-01-30T05:37:17;102306.28;;;-0.57;90.33
83843;BME280;73869;52.336;21.182;2024-01-30T05:39:44;102332.28;;;-0.46;89.60
83843;BME280;73869;52.336;21.182;2024-01-30T05:42:11;102339.09;;;-0.42;89.76
83843;BME280;73869;52.336;21.182;2024-01-30T05:54:06;102302.31;;;-0.90;89.55
83843;BME280;73869;52.336;21.182;2024-01-30T05:56:32;102337.66;;;-0.60;90.32
83843;BME280;73869;52.336;21.182;2024-01-30T05:59:24;102352.72;;;-0.59;90.00
83843;BME280;73869;52.336;21.182;2024-01-30T06:09:38;102344.19;;;-0.52;89.49
83843;BME280;73869;52.336;21.182;2024-01-30T06:12:06;102289.34;;;-0.82;90.43
83843;BME280;73869;52.336;21.182;2024-01-30T06:14:33;102328.97;;;-0.50;89.54
83843;BME280;73869;52.336;21.182;2024-01-30T06:16:59;102324.09;;;-0.57;89.39
83843;BME280;73869;52.336;21.182;2024-01-30T06:19:26;102335.34;;;-0.52;89.58
83843;BME280;73869;52.336;21.182;2024-01-30T06:21:52;102311.28;;;-0.65;89.87
83843;BME280;73869;52.336;21.182;2024-01-30T06:24:19;102312.47;;;-0.69;89.60
83843;BME280;73869;52.336;21.182;2024-01-30T06:26:47;102332.50;;;-0.49;88.87
83843;BME280;73869;52.336;21.182;2024-01-30T06:29:14;102326.50;;;-0.53;89.44
83843;BME280;73869;52.336;21.182;2024-01-30T06:31:54;102294.47;;;-0.79;89.09
83843;BME280;73869;52.336;21.182;2024-01-30T06:34:21;102300.56;;;-0.77;89.50
83843;BME280;73869;52.336;21.182;2024-01-30T06:36:47;102321.66;;;-0.60;88.80
83843;BME280;73869;52.336;21.182;2024-01-30T06:39:14;102347.88;;;-0.40;88.78
83843;BME280;73869;52.336;21.182;2024-01-30T06:41:41;102338.75;;;-0.50;88.90
83843;BME280;73869;52.336;21.182;2024-01-30T06:44:09;102275.47;;;-0.87;88.43
83843;BME280;73869;52.336;21.182;2024-01-30T06:46:35;102327.31;;;-0.52;88.71
83843;BME280;73869;52.336;21.182;2024-01-30T06:49:03;102299.38;;;-0.59;88.47
83843;BME280;73869;52.336;21.182;2024-01-30T06:51:30;102302.69;;;-0.56;88.00
83843;BME280;73869;52.336;21.182;2024-01-30T06:53:56;102317.63;;;-0.53;88.21
83843;BME280;73869;52.336;21.182;2024-01-30T06:56:23;102301.94;;;-0.58;88.68
83843;BME280;73869;52.336;21.182;2024-01-30T06:58:51;102267.38;;;-0.73;87.88
83843;BME280;73869;52.336;21.182;2024-01-30T07:01:19;102292.97;;;-0.44;87.42
83843;BME280;73869;52.336;21.182;2024-01-30T07:03:46;102343.00;;;-0.21;87.82
83843;BME280;73869;52.336;21.182;2024-01-30T07:06:13;102316.72;;;-0.40;87.78
83843;BME280;73869;52.336;21.182;2024-01-30T07:08:40;102343.78;;;-0.19;87.27
83843;BME280;73869;52.336;21.182;2024-01-30T07:11:07;102342.84;;;-0.06;86.61
83843;BME280;73869;52.336;21.182;2024-01-30T07:13:34;102354.41;;;0.08;86.50
83843;BME280;73869;52.336;21.182;2024-01-30T07:16:01;102348.84;;;0.11;86.07
83843;BME280;73869;52.336;21.182;2024-01-30T07:18:29;102354.31;;;0.22;85.80
83843;BME280;73869;52.336;21.182;2024-01-30T07:20:56;102348.97;;;0.22;85.97
83843;BME280;73869;52.336;21.182;2024-01-30T07:23:24;102351.34;;;0.26;85.36
83843;BME280;73869;52.336;21.182;2024-01-30T07:25:51;102324.94;;;0.22;85.16
83843;BME280;73869;52.336;21.182;2024-01-30T07:28:17;102339.47;;;0.30;85.42
83843;BME280;73869;52.336;21.182;2024-01-30T07:41:37;102327.16;;;0.53;83.76
83843;BME280;73869;52.336;21.182;2024-01-30T07:44:28;102359.56;;;0.73;83.96
83843;BME280;73869;52.336;21.182;2024-01-30T07:46:55;102321.19;;;0.62;83.66
83843;BME280;73869;52.336;21.182;2024-01-30T07:49:23;102350.06;;;0.82;83.44
83843;BME280;73869;52.336;21.182;2024-01-30T07:55:56;102304.25;;;0.74;82.87
83843;BME280;73869;52.336;21.182;2024-01-30T07:58:24;102274.88;;;0.61;82.00
83843;BME280;73869;52.336;21.182;2024-01-30T08:27:21;102301.72;;;1.90;77.12
83843;BME280;73869;52.336;21.182;2024-01-30T08:29:49;102270.94;;;1.85;76.94
83843;BME280;73869;52.336;21.182;2024-01-30T08:36:50;102266.09;;;2.12;75.32
83843;BME280;73869;52.336;21.182;2024-01-30T08:46:37;102327.56;;;2.92;74.32
83843;BME280;73869;52.336;21.182;2024-01-30T09:00:27;102331.06;;;3.37;74.01
83843;BME280;73869;52.336;21.182;2024-01-30T09:02:56;102312.38;;;3.35;71.44
83843;BME280;73869;52.336;21.182;2024-01-30T09:05:22;102318.59;;;3.47;71.13
83843;BME280;73869;52.336;21.182;2024-01-30T09:07:49;102298.97;;;3.35;71.67
83843;BME280;73869;52.336;21.182;2024-01-30T09:10:16;102326.06;;;3.64;71.20
83843;BME280;73869;52.336;21.182;2024-01-30T09:12:42;102298.75;;;3.59;70.41
83843;BME280;73869;52.336;21.182;2024-01-30T09:15:09;102280.94;;;3.58;69.76
83843;BME280;73869;52.336;21.182;2024-01-30T09:17:36;102295.19;;;3.90;72.12
83843;BME280;73869;52.336;21.182;2024-01-30T09:20:05;102275.41;;;3.91;70.87
83843;BME280;73869;52.336;21.182;2024-01-30T09:22:32;102297.69;;;4.23;69.44
83843;BME280;73869;52.336;21.182;2024-01-30T09:24:59;102288.09;;;4.30;67.27
83843;BME280;73869;52.336;21.182;2024-01-30T09:27:26;102259.34;;;4.00;67.36
83843;BME280;73869;52.336;21.182;2024-01-30T09:29:52;102320.69;;;4.37;67.88
83843;BME280;73869;52.336;21.182;2024-01-30T09:32:19;102265.81;;;4.19;69.75
83843;BME280;73869;52.336;21.182;2024-01-30T09:34:48;102299.19;;;4.67;67.67
83843;BME280;73869;52.336;21.182;2024-01-30T09:37:16;102307.06;;;4.89;68.18
83843;BME280;73869;52.336;21.182;2024-01-30T09:39:43;102279.44;;;4.87;68.72
83843;BME280;73869;52.336;21.182;2024-01-30T09:42:17;102243.03;;;4.83;66.27
83843;BME280;73869;52.336;21.182;2024-01-30T09:44:45;102299.59;;;4.92;65.25
83843;BME280;73869;52.336;21.182;2024-01-30T09:47:14;102279.16;;;4.90;65.53
83843;BME280;73869;52.336;21.182;2024-01-30T09:49:43;102304.28;;;5.00;65.31
83843;BME280;73869;52.336;21.182;2024-01-30T09:52:10;102272.53;;;4.94;65.12
83843;BME280;73869;52.336;21.182;2024-01-30T09:54:40;102308.28;;;5.15;66.10
83843;BME280;73869;52.336;21.182;2024-01-30T09:57:07;102292.13;;;5.15;65.08
83843;BME280;73869;52.336;21.182;2024-01-30T09:59:34;102292.84;;;5.17;65.86
83843;BME280;73869;52.336;21.182;2024-01-30T10:02:01;102288.06;;;5.30;65.46
83843;BME280;73869;52.336;21.182;2024-01-30T10:04:29;102263.09;;;5.37;66.53
83843;BME280;73869;52.336;21.182;2024-01-30T10:28:59;102249.03;;;6.66;59.20
83843;BME280;73869;52.336;21.182;2024-01-30T10:31:26;102243.78;;;6.55;59.26
83843;BME280;73869;52.336;21.182;2024-01-30T10:37:30;102236.88;;;6.43;60.46
83843;BME280;73869;52.336;21.182;2024-01-30T10:40:02;102185.78;;;6.32;59.63
83843;BME280;73869;52.336;21.182;2024-01-30T10:42:53;102202.72;;;6.51;58.54
83843;BME280;73869;52.336;21.182;2024-01-30T10:45:41;102246.28;;;6.75;58.33
83843;BME280;73869;52.336;21.182;2024-01-30T10:48:11;102240.91;;;6.93;61.28
83843;BME280;73869;52.336;21.182;2024-01-30T10:50:40;102238.22;;;7.11;59.64
83843;BME280;73869;52.336;21.182;2024-01-30T10:53:08;102184.50;;;7.08;60.93
83843;BME280;73869;52.336;21.182;2024-01-30T11:05:49;102211.94;;;7.48;57.47
83843;BME280;73869;52.336;21.182;2024-01-30T11:12:41;102208.44;;;7.73;55.51
83843;BME280;73869;52.336;21.182;2024-01-30T11:15:43;102157.41;;;7.52;56.84
83843;BME280;73869;52.336;21.182;2024-01-30T11:22:22;102184.78;;;7.75;55.45
83843;BME280;73869;52.336;21.182;2024-01-30T11:24:49;102165.16;;;7.73;55.75
83843;BME280;73869;52.336;21.182;2024-01-30T11:33:52;102150.53;;;7.83;55.05
83843;BME280;73869;52.336;21.182;2024-01-30T11:36:21;102158.16;;;7.88;53.92
83843;BME280;73869;52.336;21.182;2024-01-30T11:38:59;102165.97;;;7.91;53.81
83843;BME280;73869;52.336;21.182;2024-01-30T11:41:54;102126.44;;;7.98;55.32
83843;BME280;73869;52.336;21.182;2024-01-30T11:44:24;102165.22;;;8.32;52.44
83843;BME280;73869;52.336;21.182;2024-01-30T11:46:52;102139.34;;;8.12;53.72
83843;BME280;73869;52.336;21.182;2024-01-30T11:49:19;102174.19;;;8.33;54.01
83843;BME280;73869;52.336;21.182;2024-01-30T11:51:45;102156.94;;;8.34;54.14
83843;BME280;73869;52.336;21.182;2024-01-30T11:54:15;102158.13;;;8.31;53.01
83843;BME280;73869;52.336;21.182;2024-01-30T11:56:42;102172.47;;;8.32;52.65
83843;BME280;73869;52.336;21.182;2024-01-30T11:59:09;102161.97;;;8.29;53.09
83843;BME280;73869;52.336;21.182;2024-01-30T12:01:36;102122.41;;;8.28;53.93
83843;BME280;73869;52.336;21.182;2024-01-30T12:04:03;102157.47;;;8.79;53.95
83843;BME280;73869;52.336;21.182;2024-01-30T12:06:33;102159.88;;;8.98;54.41
83843;BME280;73869;52.336;21.182;2024-01-30T12:09:01;102165.78;;;8.85;52.25
83843;BME280;73869;52.336;21.182;2024-01-30T12:11:31;102160.94;;;8.55;54.62
83843;BME280;73869;52.336;21.182;2024-01-30T12:13:57;102156.72;;;8.61;50.90
83843;BME280;73869;52.336;21.182;2024-01-30T12:16:24;102158.97;;;8.73;54.87
83843;BME280;73869;52.336;21.182;2024-01-30T12:18:59;102150.50;;;8.76;52.73
83843;BME280;73869;52.336;21.182;2024-01-30T12:21:26;102155.44;;;8.89;51.03
83843;BME280;73869;52.336;21.182;2024-01-30T12:23:52;102146.75;;;8.77;53.89
83843;BME280;73869;52.336;21.182;2024-01-30T12:26:19;102151.41;;;8.51;51.70
83843;BME280;73869;52.336;21.182;2024-01-30T12:28:50;102138.44;;;8.63;54.19
83843;BME280;73869;52.336;21.182;2024-01-30T12:31:17;102151.38;;;8.77;51.45
83843;BME280;73869;52.336;21.182;2024-01-30T12:33:44;102151.72;;;8.82;52.49
83843;BME280;73869;52.336;21.182;2024-01-30T12:36:11;102136.97;;;8.76;51.81
83843;BME280;73869;52.336;21.182;2024-01-30T12:38:38;102148.84;;;8.83;50.51
83843;BME280;73869;52.336;21.182;2024-01-30T12:41:07;102141.25;;;9.03;54.94
83843;BME280;73869;52.336;21.182;2024-01-30T12:43:33;102147.56;;;9.27;52.76
83843;BME280;73869;52.336;21.182;2024-01-30T12:46:02;102141.97;;;9.13;52.62
83843;BME280;73869;52.336;21.182;2024-01-30T12:48:29;102148.53;;;8.94;49.78
83843;BME280;73869;52.336;21.182;2024-01-30T12:50:56;102143.44;;;8.91;53.39
83843;BME280;73869;52.336;21.182;2024-01-30T12:53:22;102134.44;;;8.91;53.13
83843;BME280;73869;52.336;21.182;2024-01-30T12:55:49;102129.56;;;9.10;53.93
83843;BME280;73869;52.336;21.182;2024-01-30T12:58:15;102144.31;;;9.08;49.91
83843;BME280;73869;52.336;21.182;2024-01-30T13:00:42;102132.97;;;9.04;53.59
83843;BME280;73869;52.336;21.182;2024-01-30T13:03:11;102129.03;;;8.99;51.06
83843;BME280;73869;52.336;21.182;2024-01-30T13:05:38;102132.63;;;9.15;50.59
83843;BME280;73869;52.336;21.182;2024-01-30T13:08:05;102127.19;;;8.99;50.52
83843;BME280;73869;52.336;21.182;2024-01-30T13:10:31;102127.19;;;9.07;51.08
83843;BME280;73869;52.336;21.182;2024-01-30T13:12:58;102128.22;;;9.06;53.43
83843;BME280;73869;52.336;21.182;2024-01-30T13:15:25;102129.25;;;9.21;51.82
83843;BME280;73869;52.336;21.182;2024-01-30T13:17:51;102127.22;;;9.23;51.69
83843;BME280;73869;52.336;21.182;2024-01-30T13:20:21;102129.38;;;9.04;51.36
83843;BME280;73869;52.336;21.182;2024-01-30T13:22:47;102132.47;;;9.17;53.97
83843;BME280;73869;52.336;21.182;2024-01-30T13:25:15;102138.72;;;9.09;53.16
83843;BME280;73869;52.336;21.182;2024-01-30T13:27:41;102126.50;;;9.13;52.32
83843;BME280;73869;52.336;21.182;2024-01-30T13:30:08;102126.84;;;9.10;52.67
83843;BME280;73869;52.336;21.182;2024-01-30T13:32:35;102128.75;;;9.34;49.57
83843;BME280;73869;52.336;21.182;2024-01-30T13:35:02;102118.25;;;9.23;50.91
83843;BME280;73869;52.336;21.182;2024-01-30T13:37:31;102117.22;;;9.08;49.54
83843;BME280;73869;52.336;21.182;2024-01-30T13:39:57;102127.19;;;8.91;52.55
83843;BME280;73869;52.336;21.182;2024-01-30T13:42:24;102123.94;;;8.88;50.56
83843;BME280;73869;52.336;21.182;2024-01-30T13:44:50;102119.69;;;8.77;49.89
83843;BME280;73869;52.336;21.182;2024-01-30T13:47:17;102119.34;;;8.72;49.55
83843;BME280;73869;52.336;21.182;2024-01-30T13:49:44;102119.69;;;8.77;51.55
83843;BME280;73869;52.336;21.182;2024-01-30T13:52:10;102119.16;;;8.66;51.77
83843;BME280;73869;52.336;21.182;2024-01-30T14:07:31;102107.50;;;8.32;51.41
83843;BME280;73869;52.336;21.182;2024-01-30T14:09:58;102088.09;;;8.10;53.46
83843;BME280;73869;52.336;21.182;2024-01-30T14:12:24;102084.59;;;8.18;52.71
83843;BME280;73869;52.336;21.182;2024-01-30T14:14:51;102102.50;;;8.11;52.92
83843;BME280;73869;52.336;21.182;2024-01-30T14:17:17;102082.66;;;7.69;53.66
83843;BME280;73869;52.336;21.182;2024-01-30T14:19:44;102103.34;;;7.86;55.02
83843;BME280;73869;52.336;21.182;2024-01-30T14:22:11;102094.88;;;7.81;56.59
83843;BME280;73869;52.336;21.182;2024-01-30T14:24:39;102086.28;;;7.60;55.80
83843;BME280;73869;52.336;21.182;2024-01-30T14:27:05;102100.88;;;7.67;57.27
83843;BME280;73869;52.336;21.182;2024-01-30T14:29:58;102082.13;;;7.40;53.94
83843;BME280;73869;52.336;21.182;2024-01-30T14:32:42;102107.59;;;7.37;54.93
83843;BME280;73869;52.336;21.182;2024-01-30T14:42:35;102099.97;;;6.98;58.91
83843;BME280;73869;52.336;21.182;2024-01-30T14:45:15;102096.00;;;6.84;59.28
83843;BME280;73869;52.336;21.182;2024-01-30T14:47:43;102091.56;;;6.65;57.44
83843;BME280;73869;52.336;21.182;2024-01-30T14:51:00;102101.09;;;6.60;59.09
83843;BME280;73869;52.336;21.182;2024-01-30T14:56:45;102099.41;;;6.41;58.96
83843;BME280;73869;52.336;21.182;2024-01-30T14:59:13;102099.97;;;6.35;58.25
83843;BME280;73869;52.336;21.182;2024-01-30T15:01:45;102090.34;;;6.33;58.84
83843;BME280;73869;52.336;21.182;2024-01-30T15:04:13;102034.38;;;5.81;59.93
83843;BME280;73869;52.336;21.182;2024-01-30T15:06:40;102097.00;;;6.11;61.00
83843;BME280;73869;52.336;21.182;2024-01-30T15:09:19;102068.47;;;5.72;60.24
83843;BME280;73869;52.336;21.182;2024-01-30T15:11:48;102042.44;;;5.44;60.72
83843;BME280;73869;52.336;21.182;2024-01-30T15:14:58;102091.47;;;5.57;63.84
83843;BME280;73869;52.336;21.182;2024-01-30T15:20:42;102091.66;;;5.46;62.18
83843;BME280;73869;52.336;21.182;2024-01-30T15:23:30;102077.38;;;5.26;64.38
83843;BME280;73869;52.336;21.182;2024-01-30T15:25:56;102031.75;;;4.96;65.55
83843;BME280;73869;52.336;21.182;2024-01-30T15:28:34;102069.59;;;5.04;64.95
83843;BME280;73869;52.336;21.182;2024-01-30T15:34:33;102088.84;;;5.09;63.80